Time;durP1;ratioP1;P1;durP2;ratioP2;P2;SDS_P1;SDS_P2;PMS_P1;PMS_P2;Temp;Humidity;BMP_temperature;BMP_pressure;BME280_temperature;BME280_humidity;BME280_pressure;Samples;Min_cycle;Max_cycle;Signal;HPM_P1;HPM_P2
2022/09/06 00:01:48;;;;;;;7.00;4.40;;;21.30;93.70;;;;;;5042316;28;20525;-80
2022/09/06 00:04:14;;;;;;;6.28;3.90;;;21.30;93.80;;;;;;5033746;28;20036;-79
2022/09/06 00:06:40;;;;;;;6.82;4.32;;;21.30;93.90;;;;;;5053361;28;20036;-78
2022/09/06 00:09:06;;;;;;;5.93;4.18;;;21.30;93.80;;;;;;5024059;28;20041;-80
2022/09/06 00:11:32;;;;;;;5.22;4.05;;;21.30;93.70;;;;;;5059444;28;20038;-80
2022/09/06 00:13:57;;;;;;;6.38;4.13;;;21.20;93.70;;;;;;5039082;28;20035;-79
2022/09/06 00:16:24;;;;;;;6.75;4.80;;;21.20;93.70;;;;;;5021968;28;20041;-80
2022/09/06 00:18:53;;;;;;;6.35;4.60;;;21.20;94.00;;;;;;5041034;28;20059;-80
2022/09/06 00:21:25;;;;;;;5.20;4.03;;;21.20;94.10;;;;;;5009536;28;20105;-78
2022/09/06 00:23:52;;;;;;;7.70;4.50;;;21.20;94.10;;;;;;5043621;28;20044;-80
2022/09/06 00:26:19;;;;;;;7.40;4.32;;;21.10;94.10;;;;;;5019571;28;20071;-81
2022/09/06 00:28:45;;;;;;;6.50;4.18;;;21.10;94.20;;;;;;5033744;28;20051;-80
2022/09/06 00:31:20;;;;;;;8.10;4.80;;;21.10;94.30;;;;;;5029923;28;20079;-80
2022/09/06 00:33:46;;;;;;;5.55;4.35;;;21.10;94.30;;;;;;5046009;28;20041;-80
2022/09/06 00:36:13;;;;;;;5.38;4.20;;;21.00;94.30;;;;;;5020952;28;21813;-80
2022/09/06 00:38:39;;;;;;;8.13;4.45;;;21.00;94.40;;;;;;5037730;28;20048;-80
2022/09/06 00:41:07;;;;;;;7.85;4.30;;;21.00;94.40;;;;;;5035623;28;20045;-81
2022/09/06 00:43:33;;;;;;;5.60;4.82;;;21.00;94.40;;;;;;5029332;28;20036;-80
2022/09/06 00:46:00;;;;;;;7.28;4.70;;;21.00;94.50;;;;;;5057095;28;20412;-80
2022/09/06 00:48:26;;;;;;;4.82;4.22;;;20.90;94.50;;;;;;5022351;28;20041;-80
2022/09/06 00:50:59;;;;;;;5.15;4.63;;;20.90;94.50;;;;;;5006857;28;20037;-79
2022/09/06 00:53:25;;;;;;;8.45;4.68;;;20.90;94.50;;;;;;5034229;28;20036;-81
2022/09/06 00:55:52;;;;;;;7.68;4.30;;;20.90;94.50;;;;;;5028010;28;20032;-80
2022/09/06 00:58:18;;;;;;;7.20;4.30;;;20.90;94.50;;;;;;5032087;28;20514;-79
2022/09/06 01:00:44;;;;;;;5.90;4.07;;;20.80;94.40;;;;;;5039572;28;20045;-79
2022/09/06 01:03:11;;;;;;;5.88;4.43;;;20.90;94.50;;;;;;5037527;28;20405;-79
2022/09/06 01:06:05;;;;;;;5.15;4.20;;;20.90;94.60;;;;;;5030924;28;20492;-79
2022/09/06 01:08:58;;;;;;;6.25;4.63;;;20.90;94.80;;;;;;5031521;28;20044;-80
2022/09/06 01:11:56;;;;;;;9.68;5.55;;;20.80;94.70;;;;;;5026664;28;20033;-80
2022/09/06 01:14:39;;;;;;;5.20;4.70;;;20.80;95.20;;;;;;5059795;28;20495;-81
2022/09/06 01:17:32;;;;;;;9.68;4.78;;;20.80;95.10;;;;;;5055071;28;20101;-81
2022/09/06 01:20:32;;;;;;;6.47;5.00;;;20.80;95.10;;;;;;5057419;28;20044;-81
2022/09/06 01:23:16;;;;;;;7.85;5.00;;;20.70;95.20;;;;;;5037010;28;20047;-81
2022/09/06 01:25:58;;;;;;;8.18;5.10;;;20.70;95.40;;;;;;5038049;28;20044;-81
2022/09/06 01:28:38;;;;;;;9.32;5.15;;;20.70;95.40;;;;;;5050406;28;20049;-81
2022/09/06 01:31:17;;;;;;;5.00;4.40;;;20.70;95.60;;;;;;5037976;28;20119;-81
2022/09/06 01:34:02;;;;;;;7.18;4.78;;;20.60;95.60;;;;;;5044720;28;20036;-81
2022/09/06 01:36:53;;;;;;;7.30;4.93;;;20.60;95.60;;;;;;5054555;28;20174;-80
2022/09/06 01:39:31;;;;;;;5.93;4.97;;;20.60;95.60;;;;;;5037127;28;20051;-79
2022/09/06 01:42:19;;;;;;;7.82;5.25;;;20.50;95.70;;;;;;5037299;28;20040;-80
2022/09/06 01:44:52;;;;;;;7.80;5.82;;;20.50;95.90;;;;;;5053901;28;20048;-80
2022/09/06 01:47:21;;;;;;;11.73;5.75;;;20.60;96.20;;;;;;5040022;28;20044;-80
2022/09/06 01:50:06;;;;;;;8.93;6.30;;;20.50;96.20;;;;;;5045597;28;20410;-80
2022/09/06 01:52:58;;;;;;;9.00;6.22;;;20.50;96.60;;;;;;5039947;28;20071;-80
2022/09/06 01:55:34;;;;;;;7.53;6.82;;;20.40;96.60;;;;;;5040559;28;20064;-80
2022/09/06 01:58:11;;;;;;;8.80;7.35;;;20.40;96.50;;;;;;5031717;28;20067;-80
2022/09/06 02:01:16;;;;;;;10.15;7.30;;;20.40;96.70;;;;;;5063688;28;20048;-80
2022/09/06 02:03:58;;;;;;;8.52;7.60;;;20.40;97.00;;;;;;5018203;28;20052;-80
2022/09/06 02:06:32;;;;;;;9.07;7.78;;;20.40;97.10;;;;;;5058531;28;20037;-79
2022/09/06 02:09:21;;;;;;;8.25;7.45;;;20.30;97.20;;;;;;5037968;28;20043;-80
2022/09/06 02:11:59;;;;;;;12.07;8.75;;;20.30;97.30;;;;;;5052340;28;20032;-80
2022/09/06 02:14:32;;;;;;;9.20;7.90;;;20.20;97.60;;;;;;5062465;28;20076;-80
2022/09/06 02:16:59;;;;;;;10.35;8.85;;;20.20;98.00;;;;;;5034061;28;20040;-80
2022/09/06 02:19:48;;;;;;;9.50;8.13;;;20.20;98.40;;;;;;5032669;28;20045;-80
2022/09/06 02:22:17;;;;;;;8.90;8.07;;;20.20;98.50;;;;;;5042894;28;20102;-80
2022/09/06 02:24:46;;;;;;;12.77;8.40;;;20.10;98.90;;;;;;5054171;28;20051;-80
2022/09/06 02:27:13;;;;;;;9.80;8.80;;;20.10;99.40;;;;;;5061150;28;20127;-80
2022/09/06 02:29:39;;;;;;;12.75;9.05;;;20.10;99.60;;;;;;5059129;28;20041;-80
2022/09/06 02:32:15;;;;;;;11.55;9.82;;;20.10;99.90;;;;;;5035365;28;20048;-80
2022/09/06 02:34:42;;;;;;;14.35;9.23;;;20.10;99.90;;;;;;5041295;28;20037;-81
2022/09/06 02:37:09;;;;;;;10.55;9.18;;;20.10;99.90;;;;;;5024645;28;20037;-80
2022/09/06 02:39:35;;;;;;;12.68;9.02;;;20.10;99.90;;;;;;5049147;28;20374;-80
2022/09/06 02:42:01;;;;;;;14.20;9.48;;;20.00;99.90;;;;;;5046242;28;20044;-81
2022/09/06 02:44:26;;;;;;;12.15;9.13;;;20.00;99.90;;;;;;5073532;28;20051;-80
2022/09/06 02:46:52;;;;;;;10.68;8.40;;;20.00;99.90;;;;;;5042950;28;20044;-79
2022/09/06 02:49:18;;;;;;;13.70;10.55;;;20.00;99.90;;;;;;5038627;28;20032;-81
2022/09/06 02:51:43;;;;;;;12.63;9.88;;;20.00;99.90;;;;;;5026313;28;20105;-81
2022/09/06 02:54:09;;;;;;;11.77;9.70;;;20.00;99.90;;;;;;5040340;28;20051;-81
2022/09/06 02:56:35;;;;;;;10.27;9.18;;;20.00;99.90;;;;;;5024875;28;20044;-81
2022/09/06 02:59:04;;;;;;;13.90;9.23;;;19.90;99.90;;;;;;5043272;28;20039;-81
2022/09/06 03:01:30;;;;;;;11.05;10.02;;;19.90;99.90;;;;;;5058648;28;20565;-82
2022/09/06 03:03:56;;;;;;;13.85;10.38;;;19.90;99.90;;;;;;5055202;28;20032;-80
2022/09/06 03:06:22;;;;;;;11.25;10.05;;;19.90;99.90;;;;;;5044132;28;20125;-81
2022/09/06 03:08:48;;;;;;;14.27;10.85;;;19.90;99.90;;;;;;5024182;28;20086;-80
2022/09/06 03:11:14;;;;;;;10.80;9.68;;;19.90;99.90;;;;;;5047963;28;20032;-82
2022/09/06 03:13:40;;;;;;;10.82;9.70;;;19.90;99.90;;;;;;5035447;28;20033;-80
2022/09/06 03:16:06;;;;;;;11.65;10.32;;;19.80;99.90;;;;;;5041941;28;20495;-81
2022/09/06 03:18:31;;;;;;;11.27;10.07;;;19.90;99.90;;;;;;5058161;28;20043;-81
2022/09/06 03:20:58;;;;;;;11.48;10.00;;;19.80;99.90;;;;;;5024721;28;20032;-81
2022/09/06 03:23:27;;;;;;;18.65;11.38;;;19.80;99.90;;;;;;5066842;28;20479;-80
2022/09/06 03:25:52;;;;;;;12.48;10.68;;;19.80;99.90;;;;;;5056302;28;20048;-80
2022/09/06 03:28:19;;;;;;;16.15;10.60;;;19.80;99.90;;;;;;5039842;28;20041;-80
2022/09/06 03:30:49;;;;;;;11.05;9.82;;;19.70;99.90;;;;;;5057412;28;20043;-80
2022/09/06 03:33:15;;;;;;;14.40;11.45;;;19.70;99.90;;;;;;5036415;28;20071;-80
2022/09/06 03:35:49;;;;;;;13.25;11.13;;;19.70;99.90;;;;;;5039021;28;20043;-81
2022/09/06 03:38:15;;;;;;;11.63;10.00;;;19.70;99.90;;;;;;5042119;28;20036;-81
2022/09/06 03:40:44;;;;;;;12.10;9.77;;;19.60;99.90;;;;;;5030958;28;20556;-81
2022/09/06 03:43:09;;;;;;;12.90;9.88;;;19.70;99.90;;;;;;5047395;28;20071;-81
2022/09/06 03:45:35;;;;;;;13.35;9.82;;;19.70;99.90;;;;;;5034100;28;20535;-80
2022/09/06 03:48:01;;;;;;;12.75;9.88;;;19.60;99.90;;;;;;5033364;28;20044;-80
2022/09/06 03:50:27;;;;;;;11.02;9.90;;;19.60;99.90;;;;;;5022052;28;20405;-80
2022/09/06 03:52:52;;;;;;;12.27;9.93;;;19.60;99.90;;;;;;5053736;28;20075;-81
2022/09/06 03:55:18;;;;;;;12.68;9.10;;;19.60;99.90;;;;;;5024727;28;20471;-80
2022/09/06 03:57:44;;;;;;;10.70;9.50;;;19.60;99.90;;;;;;5045431;28;20526;-80
2022/09/06 04:00:10;;;;;;;11.00;9.20;;;19.50;99.90;;;;;;5010559;28;20516;-80
2022/09/06 04:02:35;;;;;;;11.02;9.57;;;19.50;99.90;;;;;;5011770;28;20047;-80
2022/09/06 04:05:01;;;;;;;12.70;9.30;;;19.40;99.90;;;;;;5027607;28;20739;-80
2022/09/06 04:07:27;;;;;;;10.05;9.05;;;19.40;99.90;;;;;;5047484;28;20109;-81
2022/09/06 04:09:52;;;;;;;11.55;9.75;;;19.40;99.90;;;;;;5025306;28;20043;-80
2022/09/06 04:12:18;;;;;;;14.38;9.75;;;19.30;99.90;;;;;;5043482;28;20233;-80
2022/09/06 04:14:44;;;;;;;10.75;9.35;;;19.30;99.90;;;;;;5035194;28;20073;-80
2022/09/06 04:17:09;;;;;;;11.13;9.10;;;19.20;99.90;;;;;;5035599;28;20484;-80
2022/09/06 04:19:35;;;;;;;11.07;9.63;;;19.20;99.90;;;;;;5036891;28;20044;-80
2022/09/06 04:22:00;;;;;;;12.23;9.88;;;19.20;99.90;;;;;;5055074;28;20040;-80
2022/09/06 04:24:26;;;;;;;11.77;9.45;;;19.20;99.90;;;;;;5008958;28;20040;-80
2022/09/06 04:26:52;;;;;;;10.93;9.65;;;19.10;99.90;;;;;;5042488;28;20070;-80
2022/09/06 04:29:17;;;;;;;10.73;9.65;;;19.10;99.90;;;;;;5023498;28;20036;-80
2022/09/06 04:31:43;;;;;;;12.90;9.75;;;19.10;99.90;;;;;;5048644;28;20047;-81
2022/09/06 04:34:09;;;;;;;10.48;9.45;;;19.00;99.90;;;;;;5040120;28;20040;-80
2022/09/06 04:36:36;;;;;;;10.68;9.52;;;19.00;99.90;;;;;;5026655;28;20093;-81
2022/09/06 04:39:02;;;;;;;11.27;10.13;;;19.00;99.90;;;;;;5010984;28;20050;-80
2022/09/06 04:41:28;;;;;;;12.57;9.38;;;19.00;99.90;;;;;;5032710;28;20039;-80
2022/09/06 04:43:54;;;;;;;10.95;9.85;;;19.00;99.90;;;;;;5063100;28;20452;-80
2022/09/06 04:46:29;;;;;;;11.88;9.65;;;19.00;99.90;;;;;;5058227;28;20055;-81
2022/09/06 04:48:56;;;;;;;;;;;18.90;99.90;;;;;;5031093;28;20477;-81
2022/09/06 04:51:23;;;;;;;11.52;10.43;;;18.90;99.90;;;;;;5051128;28;20016;-80
2022/09/06 04:53:50;;;;;;;11.13;9.93;;;18.90;99.90;;;;;;5057784;28;20037;-80
2022/09/06 04:56:21;;;;;;;11.48;10.27;;;18.80;99.90;;;;;;5052668;28;20045;-80
2022/09/06 04:58:48;;;;;;;11.43;10.27;;;18.80;99.90;;;;;;5056607;28;20123;-80
2022/09/06 05:01:15;;;;;;;10.90;9.90;;;18.80;99.90;;;;;;5052185;28;20067;-80
2022/09/06 05:03:41;;;;;;;12.57;10.02;;;18.70;99.90;;;;;;5050994;28;20101;-81
2022/09/06 05:06:13;;;;;;;11.70;9.68;;;18.70;99.90;;;;;;5050153;28;20043;-81
2022/09/06 05:08:40;;;;;;;10.60;9.50;;;18.70;99.90;;;;;;5049816;28;20053;-81
2022/09/06 05:11:07;;;;;;;10.85;9.55;;;18.70;99.90;;;;;;5026397;28;20048;-81
2022/09/06 05:13:34;;;;;;;11.20;9.35;;;18.60;99.90;;;;;;5043365;28;20036;-81
2022/09/06 05:16:04;;;;;;;14.95;9.13;;;18.60;99.90;;;;;;5052943;28;20076;-81
2022/09/06 05:18:30;;;;;;;10.65;9.65;;;18.60;99.90;;;;;;5016686;28;20523;-81
2022/09/06 05:20:57;;;;;;;12.00;9.07;;;18.60;99.90;;;;;;5044442;28;20036;-81
2022/09/06 05:23:24;;;;;;;10.95;9.95;;;18.60;99.90;;;;;;5055115;28;20048;-81
2022/09/06 05:25:49;;;;;;;11.55;9.00;;;18.60;99.90;;;;;;5047754;28;20037;-81
2022/09/06 05:28:15;;;;;;;12.20;9.90;;;18.60;99.90;;;;;;5034340;28;20114;-81
2022/09/06 05:30:42;;;;;;;10.95;9.57;;;18.60;99.90;;;;;;5046960;28;20037;-81
2022/09/06 05:33:08;;;;;;;11.35;9.88;;;18.60;99.90;;;;;;5056921;28;20042;-82
2022/09/06 05:35:34;;;;;;;11.80;9.65;;;18.60;99.90;;;;;;5059547;28;20032;-79
2022/09/06 05:38:00;;;;;;;13.35;9.63;;;18.60;99.90;;;;;;5062477;28;20106;-79
2022/09/06 05:40:26;;;;;;;13.50;10.63;;;18.60;99.90;;;;;;5047059;28;20036;-79
2022/09/06 05:42:52;;;;;;;10.73;9.50;;;18.60;99.90;;;;;;5040575;28;20128;-78
2022/09/06 05:45:17;;;;;;;10.45;9.48;;;18.60;99.90;;;;;;5044259;28;20127;-80
2022/09/06 05:47:43;;;;;;;14.38;10.90;;;18.60;99.90;;;;;;5020397;28;20053;-80
2022/09/06 05:50:09;;;;;;;26.77;12.32;;;18.60;99.90;;;;;;5052235;28;20041;-79
2022/09/06 05:52:35;;;;;;;17.30;11.27;;;18.60;99.90;;;;;;5035101;28;20123;-78
2022/09/06 05:55:02;;;;;;;13.52;10.98;;;18.60;99.90;;;;;;5067611;28;20064;-79
2022/09/06 05:57:28;;;;;;;14.73;10.48;;;18.60;99.90;;;;;;5050784;28;20412;-79
2022/09/06 05:59:53;;;;;;;17.27;11.30;;;18.70;99.90;;;;;;5054874;28;20029;-80
2022/09/06 06:02:21;;;;;;;14.88;11.65;;;18.60;99.90;;;;;;5056175;28;20041;-79
2022/09/06 06:04:46;;;;;;;26.92;11.80;;;18.60;99.90;;;;;;5036496;28;20048;-79
2022/09/06 06:07:13;;;;;;;16.08;10.98;;;18.60;99.90;;;;;;5022768;28;20116;-79
2022/09/06 06:09:39;;;;;;;11.38;10.18;;;18.60;99.90;;;;;;5047671;28;20048;-81
2022/09/06 06:12:05;;;;;;;11.95;9.98;;;18.60;99.90;;;;;;5031031;28;20037;-79
2022/09/06 06:14:30;;;;;;;13.25;10.63;;;18.60;99.90;;;;;;5054329;28;20048;-81
2022/09/06 06:16:56;;;;;;;21.17;11.07;;;18.60;99.90;;;;;;5035188;28;20037;-79
2022/09/06 06:19:22;;;;;;;13.98;9.73;;;18.70;99.90;;;;;;5053510;28;20045;-79
2022/09/06 06:21:47;;;;;;;13.40;10.25;;;18.70;99.90;;;;;;5033857;28;20151;-81
2022/09/06 06:24:13;;;;;;;12.15;10.60;;;18.60;99.90;;;;;;5027556;28;20045;-80
2022/09/06 06:26:39;;;;;;;11.55;10.35;;;18.70;99.90;;;;;;5055005;28;20032;-80
2022/09/06 06:29:08;;;;;;;12.63;10.77;;;18.70;99.90;;;;;;5059303;28;20095;-79
2022/09/06 06:31:34;;;;;;;13.43;11.23;;;18.70;99.90;;;;;;5051068;28;20121;-80
2022/09/06 06:34:02;;;;;;;12.40;10.93;;;18.70;99.90;;;;;;5052409;28;20037;-80
2022/09/06 06:36:32;;;;;;;16.20;10.30;;;18.70;99.90;;;;;;5046022;28;20040;-80
2022/09/06 06:38:59;;;;;;;13.90;11.13;;;18.70;99.90;;;;;;5037910;28;20044;-80
2022/09/06 06:41:28;;;;;;;12.88;11.57;;;18.70;99.90;;;;;;5058004;28;20045;-80
2022/09/06 06:43:56;;;;;;;11.98;10.77;;;18.80;99.90;;;;;;5040961;28;20036;-80
2022/09/06 06:46:24;;;;;;;13.25;11.48;;;18.80;99.90;;;;;;5037928;28;20170;-80
2022/09/06 06:48:50;;;;;;;12.77;10.98;;;18.80;99.90;;;;;;5036402;28;20068;-80
2022/09/06 06:51:17;;;;;;;13.27;11.95;;;18.80;99.90;;;;;;5019769;28;20095;-80
2022/09/06 06:53:46;;;;;;;12.70;11.40;;;18.90;99.90;;;;;;5052128;28;20037;-80
2022/09/06 06:56:26;;;;;;;12.88;11.57;;;18.90;99.90;;;;;;5045497;28;20073;-80
2022/09/06 06:58:55;;;;;;;15.88;11.77;;;19.00;99.90;;;;;;5058556;28;20570;-80
2022/09/06 07:01:22;;;;;;;12.60;11.30;;;19.10;99.90;;;;;;5052210;28;20106;-80
2022/09/06 07:03:48;;;;;;;13.73;12.25;;;19.10;99.90;;;;;;5051294;28;20508;-81
2022/09/06 07:06:14;;;;;;;15.85;12.10;;;19.20;99.90;;;;;;5047940;28;20064;-80
2022/09/06 07:08:41;;;;;;;15.30;11.73;;;19.30;99.90;;;;;;5063890;28;20531;-80
2022/09/06 07:11:09;;;;;;;12.82;11.60;;;19.40;99.90;;;;;;5061278;28;20037;-80
2022/09/06 07:13:35;;;;;;;15.40;10.88;;;19.70;99.90;;;;;;5045860;28;20044;-80
2022/09/06 07:16:18;;;;;;;15.13;11.05;;;19.90;99.90;;;;;;5053258;28;20048;-79
2022/09/06 07:18:44;;;;;;;12.85;11.55;;;20.20;99.90;;;;;;5045389;28;20084;-79
2022/09/06 07:21:20;;;;;;;12.05;10.95;;;20.50;99.90;;;;;;5053467;28;20498;-80
2022/09/06 07:23:47;;;;;;;12.30;10.82;;;20.70;99.90;;;;;;5038432;28;20421;-80
2022/09/06 07:26:18;;;;;;;12.07;10.88;;;21.00;99.90;;;;;;5037533;28;20453;-79
2022/09/06 07:28:45;;;;;;;12.32;11.05;;;21.30;99.90;;;;;;5046357;28;20036;-80
2022/09/06 07:31:11;;;;;;;11.82;10.75;;;21.60;99.90;;;;;;5058987;28;20529;-79
2022/09/06 07:33:37;;;;;;;12.80;10.48;;;21.80;99.90;;;;;;5046954;28;20066;-80
2022/09/06 07:36:05;;;;;;;11.93;10.80;;;21.90;99.90;;;;;;5032741;28;20052;-80
2022/09/06 07:38:32;;;;;;;11.75;10.65;;;22.20;99.90;;;;;;5036942;28;20183;-79
2022/09/06 07:41:06;;;;;;;12.38;10.10;;;22.40;99.90;;;;;;5064723;28;20522;-80
2022/09/06 07:43:32;;;;;;;12.70;10.18;;;22.50;99.90;;;;;;5054594;28;20051;-80
2022/09/06 07:46:04;;;;;;;13.95;10.73;;;22.70;99.90;;;;;;5033021;28;20500;-80
2022/09/06 07:48:32;;;;;;;10.48;9.38;;;22.80;99.90;;;;;;5047738;28;20036;-80
2022/09/06 07:51:10;;;;;;;17.77;10.90;;;22.90;99.90;;;;;;5040908;28;20033;-80
2022/09/06 07:53:37;;;;;;;12.07;10.75;;;22.90;99.90;;;;;;5041200;28;20087;-80
2022/09/06 07:56:05;;;;;;;12.98;11.60;;;22.80;99.90;;;;;;5029034;28;20040;-79
2022/09/06 07:58:33;;;;;;;11.95;10.75;;;22.80;99.90;;;;;;5028537;28;20036;-79
2022/09/06 08:01:29;;;;;;;13.23;11.63;;;22.70;99.90;;;;;;5037008;28;20138;-78
2022/09/06 08:03:56;;;;;;;12.05;10.45;;;22.80;99.90;;;;;;5047465;28;20078;-80
2022/09/06 08:06:22;;;;;;;14.60;10.50;;;22.80;99.90;;;;;;5060914;28;20100;-80
2022/09/06 08:08:49;;;;;;;11.43;10.35;;;22.80;99.90;;;;;;5045036;28;20037;-80
2022/09/06 08:11:15;;;;;;;11.30;10.20;;;22.70;99.90;;;;;;5051249;28;20041;-80
2022/09/06 08:13:42;;;;;;;12.57;10.23;;;22.70;99.90;;;;;;5017748;28;20094;-80
2022/09/06 08:16:09;;;;;;;14.85;10.52;;;22.70;99.90;;;;;;5025625;28;20076;-79
2022/09/06 08:18:36;;;;;;;11.75;10.27;;;22.70;99.90;;;;;;5042876;28;20044;-80
2022/09/06 08:21:13;;;;;;;50.15;12.90;;;22.70;99.90;;;;;;5045983;28;20519;-80
2022/09/06 08:23:43;;;;;;;18.73;9.13;;;22.70;99.90;;;;;;5035695;28;20097;-79
2022/09/06 08:26:10;;;;;;;11.52;8.90;;;22.70;99.90;;;;;;5059098;28;20049;-79
2022/09/06 08:28:36;;;;;;;11.00;8.32;;;22.70;99.90;;;;;;5038179;28;20036;-80
2022/09/06 08:31:07;;;;;;;12.98;9.02;;;22.70;99.90;;;;;;5012465;28;20055;-80
2022/09/06 08:33:32;;;;;;;11.82;9.45;;;22.70;99.90;;;;;;5031379;28;20063;-79
2022/09/06 08:35:58;;;;;;;30.02;9.65;;;22.70;99.90;;;;;;5036458;28;20458;-80
2022/09/06 08:38:26;;;;;;;14.07;9.60;;;22.60;99.90;;;;;;5016863;28;20404;-80
2022/09/06 08:40:53;;;;;;;10.13;8.90;;;22.60;99.90;;;;;;5040122;28;20041;-80
2022/09/06 08:43:21;;;;;;;10.10;9.10;;;22.60;99.90;;;;;;5047283;28;20119;-80
2022/09/06 08:45:53;;;;;;;9.73;8.82;;;22.60;99.90;;;;;;5056631;28;20057;-80
2022/09/06 08:48:20;;;;;;;9.40;8.18;;;22.70;99.90;;;;;;5030185;28;20488;-80
2022/09/06 08:50:56;;;;;;;9.63;8.68;;;22.70;99.90;;;;;;5055328;28;20056;-80
2022/09/06 08:53:22;;;;;;;9.85;7.90;;;22.80;99.90;;;;;;5040804;28;20448;-80
2022/09/06 08:56:09;;;;;;;9.25;7.57;;;22.90;99.90;;;;;;5030118;28;20140;-80
2022/09/06 08:58:59;;;;;;;10.48;7.95;;;22.90;99.90;;;;;;5037972;28;20037;-80
2022/09/06 09:01:32;;;;;;;10.73;8.75;;;22.90;99.90;;;;;;5041202;28;20072;-80
2022/09/06 09:04:03;;;;;;;9.25;8.20;;;22.90;99.90;;;;;;5059700;28;20124;-80
2022/09/06 09:06:31;;;;;;;10.82;9.15;;;22.90;99.90;;;;;;5046957;28;20087;-80
2022/09/06 09:09:06;;;;;;;10.57;8.88;;;22.90;99.90;;;;;;5043580;28;20033;-80
2022/09/06 09:11:34;;;;;;;9.73;8.75;;;22.90;99.90;;;;;;5043397;28;20075;-80
2022/09/06 09:14:21;;;;;;;9.07;8.25;;;22.90;99.90;;;;;;5067516;28;20044;-80
2022/09/06 09:16:59;;;;;;;9.43;8.43;;;23.00;99.90;;;;;;5048546;28;20055;-84
2022/09/06 09:19:25;;;;;;;11.13;9.57;;;23.00;99.90;;;;;;5048265;28;20041;-80
2022/09/06 09:21:50;;;;;;;9.73;8.57;;;23.00;99.90;;;;;;5045855;28;20048;-81
2022/09/06 09:24:16;;;;;;;10.93;9.10;;;23.10;99.90;;;;;;5031104;28;20033;-79
2022/09/06 09:26:57;;;;;;;11.52;8.70;;;23.00;99.90;;;;;;5028603;28;20083;-80
2022/09/06 09:29:22;;;;;;;9.25;8.38;;;23.10;99.90;;;;;;5041512;28;20510;-80
2022/09/06 09:31:52;;;;;;;9.63;8.05;;;23.10;99.90;;;;;;5006524;28;20072;-79
2022/09/06 09:34:35;;;;;;;11.05;9.35;;;23.20;99.90;;;;;;5056138;28;20079;-81
2022/09/06 09:37:24;;;;;;;11.00;8.80;;;23.30;99.90;;;;;;5050587;28;20049;-81
2022/09/06 09:39:53;;;;;;;9.30;8.38;;;23.40;99.90;;;;;;5058704;28;20041;-80
2022/09/06 09:42:27;;;;;;;14.50;8.50;;;23.50;99.90;;;;;;5049495;28;20518;-80
2022/09/06 09:44:52;;;;;;;13.77;8.27;;;23.60;99.90;;;;;;5034482;28;20059;-81
2022/09/06 09:47:25;;;;;;;12.07;7.30;;;23.60;99.40;;;;;;5048617;28;20047;-81
2022/09/06 09:49:50;;;;;;;12.63;8.80;;;23.60;99.50;;;;;;5063114;28;20040;-81
2022/09/06 09:52:25;;;;;;;9.73;7.35;;;23.70;99.20;;;;;;5013287;28;20368;-81
2022/09/06 09:54:54;;;;;;;8.50;7.00;;;23.80;99.30;;;;;;5035993;28;20127;-81
2022/09/06 09:57:21;;;;;;;10.15;6.38;;;23.80;99.00;;;;;;5033598;28;20121;-81
2022/09/06 09:59:47;;;;;;;7.13;6.22;;;23.80;98.90;;;;;;5025849;28;20146;-81
2022/09/06 10:02:34;;;;;;;8.27;6.13;;;23.90;98.10;;;;;;5063460;28;20496;-81
2022/09/06 10:05:05;;;;;;;8.95;5.47;;;23.90;97.50;;;;;;5053092;28;20048;-81
2022/09/06 10:07:43;;;;;;;5.90;5.30;;;23.90;97.70;;;;;;5040972;28;20040;-81
2022/09/06 10:10:14;;;;;;;6.80;5.32;;;24.00;97.60;;;;;;5037792;28;20039;-81
2022/09/06 10:12:41;;;;;;;7.57;4.70;;;24.00;97.50;;;;;;5042458;28;20145;-80
2022/09/06 10:15:10;;;;;;;6.35;3.85;;;24.00;97.20;;;;;;5029539;28;20057;-80
2022/09/06 10:17:50;;;;;;;6.80;3.30;;;24.00;97.00;;;;;;5028239;28;20032;-80
2022/09/06 10:20:16;;;;;;;8.27;3.30;;;24.00;96.70;;;;;;5045508;28;20098;-80
2022/09/06 10:23:17;;;;;;;6.70;3.08;;;24.10;96.60;;;;;;5050593;28;20036;-80
2022/09/06 10:25:45;;;;;;;3.78;2.70;;;24.10;96.30;;;;;;5010247;28;20056;-80
2022/09/06 10:28:40;;;;;;;4.63;2.50;;;24.10;96.00;;;;;;5035051;28;20097;-79
2022/09/06 10:31:24;;;;;;;4.70;2.75;;;24.20;95.70;;;;;;5060455;28;20126;-79
2022/09/06 10:34:08;;;;;;;4.60;2.67;;;24.20;95.70;;;;;;5035350;28;20048;-78
2022/09/06 10:36:47;;;;;;;5.93;2.80;;;24.20;95.50;;;;;;5039412;28;20040;-78
2022/09/06 10:39:31;;;;;;;4.75;2.80;;;24.30;95.50;;;;;;5034552;28;20457;-79
2022/09/06 10:42:34;;;;;;;3.50;2.30;;;24.30;95.40;;;;;;5047107;28;20037;-77
2022/09/06 10:45:18;;;;;;;3.22;2.40;;;24.30;95.70;;;;;;5042423;28;20067;-77
2022/09/06 10:48:19;;;;;;;5.75;2.50;;;24.30;95.70;;;;;;5043991;28;20040;-78
2022/09/06 10:50:59;;;;;;;4.03;2.70;;;24.40;94.80;;;;;;5051694;28;20041;-79
2022/09/06 10:53:50;;;;;;;4.90;2.45;;;24.50;94.60;;;;;;5039154;28;20068;-78
2022/09/06 10:56:46;;;;;;;4.20;2.55;;;24.50;94.50;;;;;;5051287;28;20400;-78
2022/09/06 10:59:22;;;;;;;6.00;2.80;;;24.60;94.40;;;;;;5041044;28;20086;-78
2022/09/06 11:01:54;;;;;;;4.18;2.20;;;24.60;94.30;;;;;;5051635;28;20055;-79
2022/09/06 11:04:35;;;;;;;4.57;2.80;;;24.60;94.40;;;;;;5043563;28;20041;-80
2022/09/06 11:07:05;;;;;;;3.33;2.58;;;24.70;94.70;;;;;;5043271;28;20495;-80
2022/09/06 11:09:40;;;;;;;5.05;3.38;;;24.70;94.40;;;;;;5039468;28;20037;-80
2022/09/06 11:12:30;;;;;;;5.35;2.80;;;24.80;94.20;;;;;;5051325;28;20059;-80
2022/09/06 11:14:56;;;;;;;2.80;2.58;;;24.80;94.10;;;;;;5034382;28;20508;-81
2022/09/06 11:17:32;;;;;;;4.65;2.38;;;25.00;93.60;;;;;;5037106;28;20056;-80
2022/09/06 11:20:07;;;;;;;7.55;2.83;;;25.00;93.70;;;;;;5040589;28;20041;-80
2022/09/06 11:22:39;;;;;;;3.65;2.90;;;25.10;94.10;;;;;;5032753;28;20100;-80
2022/09/06 11:25:46;;;;;;;3.92;2.35;;;25.20;94.20;;;;;;5051075;28;20037;-81
2022/09/06 11:28:17;;;;;;;4.53;2.75;;;25.20;94.30;;;;;;5030385;28;20048;-79
2022/09/06 11:30:49;;;;;;;5.50;2.70;;;25.30;93.80;;;;;;5063837;28;20040;-80
2022/09/06 11:33:28;;;;;;;4.18;2.75;;;25.50;93.40;;;;;;5033831;28;20101;-80
2022/09/06 11:36:15;;;;;;;3.03;2.00;;;25.50;93.30;;;;;;5032364;28;20037;-80
2022/09/06 11:38:41;;;;;;;2.88;2.28;;;25.50;93.30;;;;;;5056316;28;20036;-79
2022/09/06 11:41:16;;;;;;;3.55;2.40;;;25.60;93.40;;;;;;5053215;28;20037;-79
2022/09/06 11:43:47;;;;;;;3.22;2.05;;;25.50;93.60;;;;;;5032783;28;20040;-79
2022/09/06 11:46:32;;;;;;;5.25;2.45;;;25.60;93.20;;;;;;5039071;28;20040;-79
2022/09/06 11:49:05;;;;;;;6.00;2.42;;;25.60;93.10;;;;;;5029010;28;20037;-78
2022/09/06 11:51:32;;;;;;;2.85;2.20;;;25.60;92.80;;;;;;5027328;28;20045;-79
2022/09/06 11:54:02;;;;;;;4.90;2.38;;;25.70;92.80;;;;;;5054957;28;20566;-80
2022/09/06 11:56:30;;;;;;;4.45;2.15;;;25.70;92.70;;;;;;5054438;28;20071;-80
2022/09/06 11:59:01;;;;;;;3.13;2.17;;;25.80;92.60;;;;;;5049990;28;20120;-78
2022/09/06 12:01:27;;;;;;;4.82;2.50;;;25.90;92.60;;;;;;5049937;28;20048;-78
2022/09/06 12:03:54;;;;;;;3.63;2.40;;;25.90;92.40;;;;;;5051908;28;20098;-80
2022/09/06 12:06:26;;;;;;;4.60;2.60;;;26.00;91.70;;;;;;5035382;28;20077;-80
2022/09/06 12:08:53;;;;;;;3.55;2.55;;;26.00;91.60;;;;;;5035700;28;20044;-80
2022/09/06 12:11:42;;;;;;;4.18;2.35;;;26.00;91.30;;;;;;5052417;28;20033;-80
2022/09/06 12:14:30;;;;;;;4.47;2.30;;;26.10;91.60;;;;;;5049455;28;20152;-80
2022/09/06 12:16:59;;;;;;;3.78;2.08;;;26.00;91.50;;;;;;5044392;28;20052;-80
2022/09/06 12:19:50;;;;;;;5.13;2.00;;;26.10;91.40;;;;;;5045488;28;20057;-80
2022/09/06 12:22:28;;;;;;;3.22;2.28;;;26.10;91.00;;;;;;5017882;28;20054;-80
2022/09/06 12:24:58;;;;;;;3.00;2.28;;;26.20;91.50;;;;;;5008132;28;20403;-80
2022/09/06 12:27:30;;;;;;;3.35;2.05;;;26.20;90.80;;;;;;4989859;28;20058;-80
2022/09/06 12:30:06;;;;;;;3.70;2.40;;;26.40;90.90;;;;;;5014886;28;20057;-81
2022/09/06 12:32:44;;;;;;;2.60;2.00;;;26.40;91.10;;;;;;5007031;28;20052;-80
2022/09/06 12:35:22;;;;;;;3.42;2.30;;;26.50;91.30;;;;;;4998041;28;20053;-80
2022/09/06 12:37:53;;;;;;;5.00;2.10;;;26.60;91.20;;;;;;5020414;28;20072;-80
2022/09/06 12:40:20;;;;;;;4.18;2.17;;;26.60;91.60;;;;;;5008161;28;20406;-80
2022/09/06 12:42:47;;;;;;;5.75;2.50;;;26.70;91.50;;;;;;5009098;28;20084;-80
2022/09/06 12:45:14;;;;;;;3.58;2.50;;;26.70;90.90;;;;;;5009686;28;20049;-80
2022/09/06 12:47:40;;;;;;;5.28;2.70;;;26.80;90.70;;;;;;4964883;28;20050;-81
2022/09/06 12:50:17;;;;;;;5.07;2.50;;;27.00;90.60;;;;;;5018006;28;20169;-81
2022/09/06 12:52:53;;;;;;;4.63;2.53;;;27.20;90.30;;;;;;5024961;28;20449;-80
2022/09/06 12:55:37;;;;;;;3.15;2.20;;;27.30;90.00;;;;;;5043010;28;20495;-80
2022/09/06 12:58:06;;;;;;;4.63;2.50;;;27.40;89.90;;;;;;5032605;28;20047;-81
2022/09/06 13:00:52;;;;;;;3.70;2.50;;;27.50;89.20;;;;;;5059843;28;20048;-81